sensor_id;sensor_type;location;lat;lon;timestamp;temperature;humidity
6377;DHT22;3221;48.858;10.128;2024-02-14T00:00:18;3.60;99.90
6377;DHT22;3221;48.858;10.128;2024-02-14T00:02:47;3.60;99.90
6377;DHT22;3221;48.858;10.128;2024-02-14T00:05:17;3.70;99.90
6377;DHT22;3221;48.858;10.128;2024-02-14T00:07:44;3.70;99.90
6377;DHT22;3221;48.858;10.128;2024-02-14T00:10:11;3.70;99.90
6377;DHT22;3221;48.858;10.128;2024-02-14T00:12:38;3.60;99.90
6377;DHT22;3221;48.858;10.128;2024-02-14T00:15:06;3.50;99.90
6377;DHT22;3221;48.858;10.128;2024-02-14T00:17:34;3.50;99.90
6377;DHT22;3221;48.858;10.128;2024-02-14T00:20:02;3.90;99.90
6377;DHT22;3221;48.858;10.128;2024-02-14T00:22:31;4.10;99.90
6377;DHT22;3221;48.858;10.128;2024-02-14T00:24:57;4.10;99.90
6377;DHT22;3221;48.858;10.128;2024-02-14T00:27:24;4.00;99.90
6377;DHT22;3221;48.858;10.128;2024-02-14T00:29:53;3.90;99.90
6377;DHT22;3221;48.858;10.128;2024-02-14T00:32:21;3.80;99.90
6377;DHT22;3221;48.858;10.128;2024-02-14T00:34:47;3.80;99.90
6377;DHT22;3221;48.858;10.128;2024-02-14T00:37:16;3.70;99.90
6377;DHT22;3221;48.858;10.128;2024-02-14T00:39:43;3.70;99.90
6377;DHT22;3221;48.858;10.128;2024-02-14T00:42:10;3.60;99.90
6377;DHT22;3221;48.858;10.128;2024-02-14T00:44:37;3.70;99.90
6377;DHT22;3221;48.858;10.128;2024-02-14T00:47:04;3.80;99.90
6377;DHT22;3221;48.858;10.128;2024-02-14T00:49:34;3.80;99.90
6377;DHT22;3221;48.858;10.128;2024-02-14T00:52:02;3.80;99.90
6377;DHT22;3221;48.858;10.128;2024-02-14T00:54:29;3.70;99.90
6377;DHT22;3221;48.858;10.128;2024-02-14T00:56:55;3.90;99.90
6377;DHT22;3221;48.858;10.128;2024-02-14T00:59:22;4.00;99.90
6377;DHT22;3221;48.858;10.128;2024-02-14T01:01:51;4.20;99.90
6377;DHT22;3221;48.858;10.128;2024-02-14T01:04:18;4.00;99.90
6377;DHT22;3221;48.858;10.128;2024-02-14T01:06:45;3.90;99.90
6377;DHT22;3221;48.858;10.128;2024-02-14T01:09:12;3.80;99.90
6377;DHT22;3221;48.858;10.128;2024-02-14T01:11:39;3.80;99.90
6377;DHT22;3221;48.858;10.128;2024-02-14T01:14:06;3.80;99.90
6377;DHT22;3221;48.858;10.128;2024-02-14T01:16:33;3.80;99.90
6377;DHT22;3221;48.858;10.128;2024-02-14T01:18:59;3.80;99.90
6377;DHT22;3221;48.858;10.128;2024-02-14T01:21:27;3.70;99.90
6377;DHT22;3221;48.858;10.128;2024-02-14T01:23:54;3.90;99.90
6377;DHT22;3221;48.858;10.128;2024-02-14T01:26:20;3.90;99.90
6377;DHT22;3221;48.858;10.128;2024-02-14T01:28:47;3.80;99.90
6377;DHT22;3221;48.858;10.128;2024-02-14T01:31:14;3.80;99.90
6377;DHT22;3221;48.858;10.128;2024-02-14T01:33:41;3.80;99.90
6377;DHT22;3221;48.858;10.128;2024-02-14T01:36:08;3.80;99.90
6377;DHT22;3221;48.858;10.128;2024-02-14T01:38:35;3.70;99.90
6377;DHT22;3221;48.858;10.128;2024-02-14T01:41:03;3.90;99.90
6377;DHT22;3221;48.858;10.128;2024-02-14T01:43:31;4.00;99.90
6377;DHT22;3221;48.858;10.128;2024-02-14T01:46:05;3.90;99.90
6377;DHT22;3221;48.858;10.128;2024-02-14T01:48:36;3.80;99.90
6377;DHT22;3221;48.858;10.128;2024-02-14T01:51:08;3.90;99.90
6377;DHT22;3221;48.858;10.128;2024-02-14T01:53:36;3.90;99.90
6377;DHT22;3221;48.858;10.128;2024-02-14T01:56:04;4.00;99.90
6377;DHT22;3221;48.858;10.128;2024-02-14T01:58:33;4.00;99.90
6377;DHT22;3221;48.858;10.128;2024-02-14T02:01:00;4.10;99.90
6377;DHT22;3221;48.858;10.128;2024-02-14T02:03:27;3.90;99.90
6377;DHT22;3221;48.858;10.128;2024-02-14T02:05:55;3.90;99.90
6377;DHT22;3221;48.858;10.128;2024-02-14T02:08:22;4.00;99.90
6377;DHT22;3221;48.858;10.128;2024-02-14T02:10:49;4.00;99.90
6377;DHT22;3221;48.858;10.128;2024-02-14T02:13:17;3.90;99.90
6377;DHT22;3221;48.858;10.128;2024-02-14T02:15:43;3.90;99.90
6377;DHT22;3221;48.858;10.128;2024-02-14T02:18:13;3.80;99.90
6377;DHT22;3221;48.858;10.128;2024-02-14T02:20:42;3.80;99.90
6377;DHT22;3221;48.858;10.128;2024-02-14T02:23:11;3.90;99.90
6377;DHT22;3221;48.858;10.128;2024-02-14T02:25:42;3.90;99.90
6377;DHT22;3221;48.858;10.128;2024-02-14T02:28:09;3.90;99.90
6377;DHT22;3221;48.858;10.128;2024-02-14T02:30:36;3.80;99.90
6377;DHT22;3221;48.858;10.128;2024-02-14T02:33:04;3.70;99.90
6377;DHT22;3221;48.858;10.128;2024-02-14T02:39:39;3.60;99.90
6377;DHT22;3221;48.858;10.128;2024-02-14T02:42:06;3.60;99.90
6377;DHT22;3221;48.858;10.128;2024-02-14T02:44:33;3.50;99.90
6377;DHT22;3221;48.858;10.128;2024-02-14T02:47:00;3.50;99.90
6377;DHT22;3221;48.858;10.128;2024-02-14T02:49:27;3.50;99.90
6377;DHT22;3221;48.858;10.128;2024-02-14T02:51:55;3.80;99.90
6377;DHT22;3221;48.858;10.128;2024-02-14T02:54:22;3.70;99.90
6377;DHT22;3221;48.858;10.128;2024-02-14T02:56:50;3.70;99.90
6377;DHT22;3221;48.858;10.128;2024-02-14T02:59:17;3.60;99.90
6377;DHT22;3221;48.858;10.128;2024-02-14T03:01:44;3.70;99.90
6377;DHT22;3221;48.858;10.128;2024-02-14T03:04:11;3.70;99.90
6377;DHT22;3221;48.858;10.128;2024-02-14T03:06:40;3.60;99.90
6377;DHT22;3221;48.858;10.128;2024-02-14T03:09:07;3.70;99.90
6377;DHT22;3221;48.858;10.128;2024-02-14T03:11:34;3.70;99.90
6377;DHT22;3221;48.858;10.128;2024-02-14T03:14:02;3.70;99.90
6377;DHT22;3221;48.858;10.128;2024-02-14T03:16:29;3.70;99.90
6377;DHT22;3221;48.858;10.128;2024-02-14T03:18:56;3.70;99.90
6377;DHT22;3221;48.858;10.128;2024-02-14T03:21:23;3.70;99.90
6377;DHT22;3221;48.858;10.128;2024-02-14T03:23:50;3.70;99.90
6377;DHT22;3221;48.858;10.128;2024-02-14T03:26:17;3.80;99.90
6377;DHT22;3221;48.858;10.128;2024-02-14T03:28:45;3.80;99.90
6377;DHT22;3221;48.858;10.128;2024-02-14T03:31:12;3.80;99.90
6377;DHT22;3221;48.858;10.128;2024-02-14T03:33:42;3.70;99.90
6377;DHT22;3221;48.858;10.128;2024-02-14T03:36:10;3.70;99.90
6377;DHT22;3221;48.858;10.128;2024-02-14T03:38:37;3.70;99.90
6377;DHT22;3221;48.858;10.128;2024-02-14T03:41:06;3.70;99.90
6377;DHT22;3221;48.858;10.128;2024-02-14T03:43:34;3.80;99.90
6377;DHT22;3221;48.858;10.128;2024-02-14T03:46:00;3.80;99.90
6377;DHT22;3221;48.858;10.128;2024-02-14T03:48:27;3.90;99.90
6377;DHT22;3221;48.858;10.128;2024-02-14T03:50:54;3.90;99.90
6377;DHT22;3221;48.858;10.128;2024-02-14T03:53:21;3.80;99.90
6377;DHT22;3221;48.858;10.128;2024-02-14T03:55:48;3.90;99.90
6377;DHT22;3221;48.858;10.128;2024-02-14T03:58:15;4.00;99.90
6377;DHT22;3221;48.858;10.128;2024-02-14T04:00:52;3.90;99.90
6377;DHT22;3221;48.858;10.128;2024-02-14T04:03:19;3.80;99.90
6377;DHT22;3221;48.858;10.128;2024-02-14T04:05:46;3.90;99.90
6377;DHT22;3221;48.858;10.128;2024-02-14T04:08:14;3.80;99.90
6377;DHT22;3221;48.858;10.128;2024-02-14T04:10:41;3.70;99.90
6377;DHT22;3221;48.858;10.128;2024-02-14T04:13:08;3.70;99.90
6377;DHT22;3221;48.858;10.128;2024-02-14T04:15:36;3.80;99.90
6377;DHT22;3221;48.858;10.128;2024-02-14T04:18:03;3.70;99.90
6377;DHT22;3221;48.858;10.128;2024-02-14T04:20:33;3.70;99.90
6377;DHT22;3221;48.858;10.128;2024-02-14T04:23:01;3.90;99.90
6377;DHT22;3221;48.858;10.128;2024-02-14T04:25:28;3.90;99.90
6377;DHT22;3221;48.858;10.128;2024-02-14T04:27:54;4.20;99.90
6377;DHT22;3221;48.858;10.128;2024-02-14T04:30:21;4.30;99.90
6377;DHT22;3221;48.858;10.128;2024-02-14T04:32:48;4.40;99.90
6377;DHT22;3221;48.858;10.128;2024-02-14T04:35:16;4.50;99.90
6377;DHT22;3221;48.858;10.128;2024-02-14T04:37:42;4.30;99.90
6377;DHT22;3221;48.858;10.128;2024-02-14T04:40:13;4.30;99.90
6377;DHT22;3221;48.858;10.128;2024-02-14T04:42:43;4.40;99.90
6377;DHT22;3221;48.858;10.128;2024-02-14T04:45:10;4.40;99.90
6377;DHT22;3221;48.858;10.128;2024-02-14T04:47:37;4.40;99.90
6377;DHT22;3221;48.858;10.128;2024-02-14T04:50:04;4.30;99.90
6377;DHT22;3221;48.858;10.128;2024-02-14T04:52:31;4.30;99.90
6377;DHT22;3221;48.858;10.128;2024-02-14T04:54:58;4.20;99.90
6377;DHT22;3221;48.858;10.128;2024-02-14T04:57:25;4.10;99.90
6377;DHT22;3221;48.858;10.128;2024-02-14T04:59:52;4.20;99.90
6377;DHT22;3221;48.858;10.128;2024-02-14T05:02:19;4.20;99.90
6377;DHT22;3221;48.858;10.128;2024-02-14T05:04:45;4.30;99.90
6377;DHT22;3221;48.858;10.128;2024-02-14T05:07:12;4.30;99.90
6377;DHT22;3221;48.858;10.128;2024-02-14T05:09:40;4.30;99.90
6377;DHT22;3221;48.858;10.128;2024-02-14T05:12:07;4.20;99.90
6377;DHT22;3221;48.858;10.128;2024-02-14T05:14:38;4.20;99.90
6377;DHT22;3221;48.858;10.128;2024-02-14T05:17:05;4.10;99.90
6377;DHT22;3221;48.858;10.128;2024-02-14T05:19:32;4.00;99.90
6377;DHT22;3221;48.858;10.128;2024-02-14T05:21:59;3.90;99.90
6377;DHT22;3221;48.858;10.128;2024-02-14T05:24:26;3.90;99.90
6377;DHT22;3221;48.858;10.128;2024-02-14T05:26:54;3.90;99.90
6377;DHT22;3221;48.858;10.128;2024-02-14T05:29:21;3.90;99.90
6377;DHT22;3221;48.858;10.128;2024-02-14T05:31:49;4.00;99.90
6377;DHT22;3221;48.858;10.128;2024-02-14T05:34:15;4.10;99.90
6377;DHT22;3221;48.858;10.128;2024-02-14T05:36:43;4.00;99.90
6377;DHT22;3221;48.858;10.128;2024-02-14T05:39:13;4.00;99.90
6377;DHT22;3221;48.858;10.128;2024-02-14T05:41:40;4.00;99.90
6377;DHT22;3221;48.858;10.128;2024-02-14T05:44:07;3.90;99.90
6377;DHT22;3221;48.858;10.128;2024-02-14T05:46:34;4.30;99.90
6377;DHT22;3221;48.858;10.128;2024-02-14T05:49:01;4.30;99.90
6377;DHT22;3221;48.858;10.128;2024-02-14T05:51:28;4.40;99.90
6377;DHT22;3221;48.858;10.128;2024-02-14T05:53:55;4.20;99.90
6377;DHT22;3221;48.858;10.128;2024-02-14T05:56:22;4.00;99.90
6377;DHT22;3221;48.858;10.128;2024-02-14T05:58:49;4.10;99.90
6377;DHT22;3221;48.858;10.128;2024-02-14T06:01:16;4.00;99.90
6377;DHT22;3221;48.858;10.128;2024-02-14T06:03:43;3.90;99.90
6377;DHT22;3221;48.858;10.128;2024-02-14T06:06:10;3.90;99.90
6377;DHT22;3221;48.858;10.128;2024-02-14T06:08:37;3.90;99.90
6377;DHT22;3221;48.858;10.128;2024-02-14T06:11:04;3.90;99.90
6377;DHT22;3221;48.858;10.128;2024-02-14T06:13:31;4.10;99.90
6377;DHT22;3221;48.858;10.128;2024-02-14T06:15:58;4.10;99.90
6377;DHT22;3221;48.858;10.128;2024-02-14T06:18:25;4.20;99.90
6377;DHT22;3221;48.858;10.128;2024-02-14T06:20:52;4.20;99.90
6377;DHT22;3221;48.858;10.128;2024-02-14T06:23:18;4.10;99.90
6377;DHT22;3221;48.858;10.128;2024-02-14T06:25:45;4.10;99.90
6377;DHT22;3221;48.858;10.128;2024-02-14T06:28:12;4.10;99.90
6377;DHT22;3221;48.858;10.128;2024-02-14T06:30:39;4.00;99.90
6377;DHT22;3221;48.858;10.128;2024-02-14T06:33:06;4.00;99.90
6377;DHT22;3221;48.858;10.128;2024-02-14T06:35:33;4.00;99.90
6377;DHT22;3221;48.858;10.128;2024-02-14T06:38:00;4.00;99.90
6377;DHT22;3221;48.858;10.128;2024-02-14T06:40:31;4.00;99.90
6377;DHT22;3221;48.858;10.128;2024-02-14T06:42:58;4.10;99.90
6377;DHT22;3221;48.858;10.128;2024-02-14T06:45:27;4.10;99.90
6377;DHT22;3221;48.858;10.128;2024-02-14T06:47:54;4.10;99.90
6377;DHT22;3221;48.858;10.128;2024-02-14T06:50:22;4.20;99.90
6377;DHT22;3221;48.858;10.128;2024-02-14T06:52:48;4.10;99.90
6377;DHT22;3221;48.858;10.128;2024-02-14T06:55:15;4.10;99.90
6377;DHT22;3221;48.858;10.128;2024-02-14T06:57:42;4.10;99.90
6377;DHT22;3221;48.858;10.128;2024-02-14T07:00:09;4.20;99.90
6377;DHT22;3221;48.858;10.128;2024-02-14T07:02:37;4.10;99.90
6377;DHT22;3221;48.858;10.128;2024-02-14T07:05:04;4.10;99.90
6377;DHT22;3221;48.858;10.128;2024-02-14T07:07:33;4.10;99.90
6377;DHT22;3221;48.858;10.128;2024-02-14T07:10:00;4.10;99.90
6377;DHT22;3221;48.858;10.128;2024-02-14T07:12:28;4.10;99.90
6377;DHT22;3221;48.858;10.128;2024-02-14T07:14:56;4.10;99.90
6377;DHT22;3221;48.858;10.128;2024-02-14T07:17:24;4.00;99.90
6377;DHT22;3221;48.858;10.128;2024-02-14T07:19:51;4.00;99.90
6377;DHT22;3221;48.858;10.128;2024-02-14T07:22:18;4.10;99.90
6377;DHT22;3221;48.858;10.128;2024-02-14T07:24:47;4.00;99.90
6377;DHT22;3221;48.858;10.128;2024-02-14T07:27:15;4.00;99.90
6377;DHT22;3221;48.858;10.128;2024-02-14T07:29:43;4.00;99.90
6377;DHT22;3221;48.858;10.128;2024-02-14T07:32:11;4.00;99.90
6377;DHT22;3221;48.858;10.128;2024-02-14T07:34:38;4.00;99.90
6377;DHT22;3221;48.858;10.128;2024-02-14T07:37:06;4.10;99.90
6377;DHT22;3221;48.858;10.128;2024-02-14T07:39:33;4.10;99.90
6377;DHT22;3221;48.858;10.128;2024-02-14T07:42:02;4.30;99.90
6377;DHT22;3221;48.858;10.128;2024-02-14T07:44:30;4.50;99.90
6377;DHT22;3221;48.858;10.128;2024-02-14T07:46:57;4.30;99.90
6377;DHT22;3221;48.858;10.128;2024-02-14T07:49:29;4.40;99.90
6377;DHT22;3221;48.858;10.128;2024-02-14T07:51:57;4.40;99.90
6377;DHT22;3221;48.858;10.128;2024-02-14T07:54:24;4.30;99.90
6377;DHT22;3221;48.858;10.128;2024-02-14T07:56:51;4.40;99.90
6377;DHT22;3221;48.858;10.128;2024-02-14T07:59:18;4.50;99.90
6377;DHT22;3221;48.858;10.128;2024-02-14T08:01:45;4.40;99.90
6377;DHT22;3221;48.858;10.128;2024-02-14T08:04:11;4.30;99.90
6377;DHT22;3221;48.858;10.128;2024-02-14T08:06:38;4.30;99.90
6377;DHT22;3221;48.858;10.128;2024-02-14T08:09:05;4.30;99.90
6377;DHT22;3221;48.858;10.128;2024-02-14T08:11:36;4.40;99.90
6377;DHT22;3221;48.858;10.128;2024-02-14T08:14:04;4.40;99.90
6377;DHT22;3221;48.858;10.128;2024-02-14T08:16:31;4.40;99.90
6377;DHT22;3221;48.858;10.128;2024-02-14T08:18:59;4.60;99.90
6377;DHT22;3221;48.858;10.128;2024-02-14T08:21:27;4.50;99.90
6377;DHT22;3221;48.858;10.128;2024-02-14T08:23:58;4.40;99.90
6377;DHT22;3221;48.858;10.128;2024-02-14T08:26:27;4.40;99.90
6377;DHT22;3221;48.858;10.128;2024-02-14T08:28:55;4.40;99.90
6377;DHT22;3221;48.858;10.128;2024-02-14T08:31:22;4.40;99.90
6377;DHT22;3221;48.858;10.128;2024-02-14T08:33:49;4.40;99.90
6377;DHT22;3221;48.858;10.128;2024-02-14T08:36:17;4.50;99.90
6377;DHT22;3221;48.858;10.128;2024-02-14T08:38:46;4.50;99.90
6377;DHT22;3221;48.858;10.128;2024-02-14T08:41:13;4.60;99.90
6377;DHT22;3221;48.858;10.128;2024-02-14T08:43:40;4.60;99.90
6377;DHT22;3221;48.858;10.128;2024-02-14T08:46:12;4.60;99.90
6377;DHT22;3221;48.858;10.128;2024-02-14T08:48:39;4.70;99.90
6377;DHT22;3221;48.858;10.128;2024-02-14T08:51:15;4.70;99.90
6377;DHT22;3221;48.858;10.128;2024-02-14T08:53:43;4.60;99.90
6377;DHT22;3221;48.858;10.128;2024-02-14T08:56:10;4.70;99.90
6377;DHT22;3221;48.858;10.128;2024-02-14T08:58:39;4.70;99.90
6377;DHT22;3221;48.858;10.128;2024-02-14T09:01:06;4.80;99.90
6377;DHT22;3221;48.858;10.128;2024-02-14T09:03:44;5.00;99.90
6377;DHT22;3221;48.858;10.128;2024-02-14T09:06:17;4.90;99.90
6377;DHT22;3221;48.858;10.128;2024-02-14T09:08:47;4.90;99.90
6377;DHT22;3221;48.858;10.128;2024-02-14T09:11:14;4.80;99.90
6377;DHT22;3221;48.858;10.128;2024-02-14T09:13:41;5.10;99.90
6377;DHT22;3221;48.858;10.128;2024-02-14T09:16:09;4.90;99.90
6377;DHT22;3221;48.858;10.128;2024-02-14T09:18:37;5.00;99.90
6377;DHT22;3221;48.858;10.128;2024-02-14T09:21:04;5.00;99.90
6377;DHT22;3221;48.858;10.128;2024-02-14T09:23:32;5.00;99.90
6377;DHT22;3221;48.858;10.128;2024-02-14T09:26:00;5.00;99.90
6377;DHT22;3221;48.858;10.128;2024-02-14T09:28:27;5.00;99.90
6377;DHT22;3221;48.858;10.128;2024-02-14T09:30:54;5.00;99.90
6377;DHT22;3221;48.858;10.128;2024-02-14T09:33:22;5.10;99.90
6377;DHT22;3221;48.858;10.128;2024-02-14T09:35:49;5.20;99.90
6377;DHT22;3221;48.858;10.128;2024-02-14T09:38:18;5.10;99.90
6377;DHT22;3221;48.858;10.128;2024-02-14T09:40:45;5.20;99.90
6377;DHT22;3221;48.858;10.128;2024-02-14T09:43:25;5.20;99.90
6377;DHT22;3221;48.858;10.128;2024-02-14T09:45:53;5.30;99.90
6377;DHT22;3221;48.858;10.128;2024-02-14T09:48:21;5.20;99.90
6377;DHT22;3221;48.858;10.128;2024-02-14T09:50:48;5.10;99.90
6377;DHT22;3221;48.858;10.128;2024-02-14T09:53:17;5.20;99.90
6377;DHT22;3221;48.858;10.128;2024-02-14T09:55:46;5.30;99.90
6377;DHT22;3221;48.858;10.128;2024-02-14T09:58:13;5.50;99.90
6377;DHT22;3221;48.858;10.128;2024-02-14T10:00:40;5.60;99.90
6377;DHT22;3221;48.858;10.128;2024-02-14T10:03:08;5.40;99.90
6377;DHT22;3221;48.858;10.128;2024-02-14T10:05:35;5.50;99.90
6377;DHT22;3221;48.858;10.128;2024-02-14T10:08:03;5.60;99.90
6377;DHT22;3221;48.858;10.128;2024-02-14T10:10:33;5.70;99.90
6377;DHT22;3221;48.858;10.128;2024-02-14T10:13:06;5.60;99.90
6377;DHT22;3221;48.858;10.128;2024-02-14T10:15:33;5.60;99.90
6377;DHT22;3221;48.858;10.128;2024-02-14T10:18:01;5.60;99.90
6377;DHT22;3221;48.858;10.128;2024-02-14T10:20:30;5.50;99.90
6377;DHT22;3221;48.858;10.128;2024-02-14T10:23:02;5.70;99.90
6377;DHT22;3221;48.858;10.128;2024-02-14T10:25:33;5.70;99.90
6377;DHT22;3221;48.858;10.128;2024-02-14T10:28:04;5.70;99.90
6377;DHT22;3221;48.858;10.128;2024-02-14T10:30:38;5.70;99.90
6377;DHT22;3221;48.858;10.128;2024-02-14T10:33:07;5.70;99.90
6377;DHT22;3221;48.858;10.128;2024-02-14T10:35:52;6.10;99.90
6377;DHT22;3221;48.858;10.128;2024-02-14T10:38:20;5.90;99.90
6377;DHT22;3221;48.858;10.128;2024-02-14T10:40:49;6.00;99.90
6377;DHT22;3221;48.858;10.128;2024-02-14T10:43:18;6.10;99.90
6377;DHT22;3221;48.858;10.128;2024-02-14T10:45:45;5.90;99.90
6377;DHT22;3221;48.858;10.128;2024-02-14T10:48:12;5.90;99.90
6377;DHT22;3221;48.858;10.128;2024-02-14T10:50:43;6.00;99.90
6377;DHT22;3221;48.858;10.128;2024-02-14T10:53:13;6.00;99.90
6377;DHT22;3221;48.858;10.128;2024-02-14T10:55:46;6.00;99.90
6377;DHT22;3221;48.858;10.128;2024-02-14T10:58:16;6.10;99.90
6377;DHT22;3221;48.858;10.128;2024-02-14T11:00:44;6.20;99.90
6377;DHT22;3221;48.858;10.128;2024-02-14T11:03:12;6.20;99.90
6377;DHT22;3221;48.858;10.128;2024-02-14T11:05:48;6.30;99.90
6377;DHT22;3221;48.858;10.128;2024-02-14T11:08:20;6.40;99.90
6377;DHT22;3221;48.858;10.128;2024-02-14T11:10:55;6.60;99.90
6377;DHT22;3221;48.858;10.128;2024-02-14T11:13:29;6.70;99.90
6377;DHT22;3221;48.858;10.128;2024-02-14T11:16:03;6.80;99.90
6377;DHT22;3221;48.858;10.128;2024-02-14T11:18:31;7.00;99.90
6377;DHT22;3221;48.858;10.128;2024-02-14T11:21:03;7.00;99.90
6377;DHT22;3221;48.858;10.128;2024-02-14T11:23:31;7.00;99.90
6377;DHT22;3221;48.858;10.128;2024-02-14T11:26:03;7.00;99.90
6377;DHT22;3221;48.858;10.128;2024-02-14T11:28:36;7.00;99.90
6377;DHT22;3221;48.858;10.128;2024-02-14T11:31:04;7.00;99.90
6377;DHT22;3221;48.858;10.128;2024-02-14T11:33:32;6.90;99.90
6377;DHT22;3221;48.858;10.128;2024-02-14T11:36:07;6.90;99.90
6377;DHT22;3221;48.858;10.128;2024-02-14T11:38:39;6.90;99.90
6377;DHT22;3221;48.858;10.128;2024-02-14T11:41:07;6.90;99.90
6377;DHT22;3221;48.858;10.128;2024-02-14T11:43:36;7.10;99.90
6377;DHT22;3221;48.858;10.128;2024-02-14T11:46:03;7.00;99.90
6377;DHT22;3221;48.858;10.128;2024-02-14T11:48:31;7.20;99.90
6377;DHT22;3221;48.858;10.128;2024-02-14T11:50:59;7.20;99.90
6377;DHT22;3221;48.858;10.128;2024-02-14T11:53:26;7.30;99.90
6377;DHT22;3221;48.858;10.128;2024-02-14T11:55:55;7.10;99.90
6377;DHT22;3221;48.858;10.128;2024-02-14T11:58:23;7.30;99.90
6377;DHT22;3221;48.858;10.128;2024-02-14T12:00:50;7.30;99.90
6377;DHT22;3221;48.858;10.128;2024-02-14T12:03:18;7.30;99.90
6377;DHT22;3221;48.858;10.128;2024-02-14T12:05:47;7.20;99.90
6377;DHT22;3221;48.858;10.128;2024-02-14T12:08:15;7.30;99.90
6377;DHT22;3221;48.858;10.128;2024-02-14T12:10:43;7.40;99.90
6377;DHT22;3221;48.858;10.128;2024-02-14T12:13:14;7.40;99.90
6377;DHT22;3221;48.858;10.128;2024-02-14T12:15:46;7.60;99.90
6377;DHT22;3221;48.858;10.128;2024-02-14T12:18:13;7.60;99.90
6377;DHT22;3221;48.858;10.128;2024-02-14T12:20:41;7.60;99.90
6377;DHT22;3221;48.858;10.128;2024-02-14T12:23:17;7.50;99.90
6377;DHT22;3221;48.858;10.128;2024-02-14T12:25:45;7.50;99.90
6377;DHT22;3221;48.858;10.128;2024-02-14T12:28:17;7.50;99.90
6377;DHT22;3221;48.858;10.128;2024-02-14T12:30:48;7.60;99.90
6377;DHT22;3221;48.858;10.128;2024-02-14T12:33:17;7.40;99.90
6377;DHT22;3221;48.858;10.128;2024-02-14T12:35:46;7.50;99.90
6377;DHT22;3221;48.858;10.128;2024-02-14T12:38:15;7.60;99.90
6377;DHT22;3221;48.858;10.128;2024-02-14T12:40:44;7.50;99.90
6377;DHT22;3221;48.858;10.128;2024-02-14T12:43:12;7.60;99.90
6377;DHT22;3221;48.858;10.128;2024-02-14T12:45:40;7.50;99.90
6377;DHT22;3221;48.858;10.128;2024-02-14T12:48:11;7.50;99.90
6377;DHT22;3221;48.858;10.128;2024-02-14T12:50:39;7.50;99.90
6377;DHT22;3221;48.858;10.128;2024-02-14T12:53:07;7.30;99.90
6377;DHT22;3221;48.858;10.128;2024-02-14T12:55:34;7.50;99.90
6377;DHT22;3221;48.858;10.128;2024-02-14T12:58:01;7.50;99.90
6377;DHT22;3221;48.858;10.128;2024-02-14T13:00:28;7.50;99.90
6377;DHT22;3221;48.858;10.128;2024-02-14T13:02:58;7.60;99.90
6377;DHT22;3221;48.858;10.128;2024-02-14T13:05:27;7.60;99.90
6377;DHT22;3221;48.858;10.128;2024-02-14T13:07:54;7.50;99.90
6377;DHT22;3221;48.858;10.128;2024-02-14T13:10:20;7.70;99.90
6377;DHT22;3221;48.858;10.128;2024-02-14T13:12:48;7.60;99.90
6377;DHT22;3221;48.858;10.128;2024-02-14T13:15:16;7.50;99.90
6377;DHT22;3221;48.858;10.128;2024-02-14T13:17:43;7.60;99.90
6377;DHT22;3221;48.858;10.128;2024-02-14T13:20:12;7.60;99.90
6377;DHT22;3221;48.858;10.128;2024-02-14T13:22:40;7.60;99.90
6377;DHT22;3221;48.858;10.128;2024-02-14T13:25:07;7.50;99.90
6377;DHT22;3221;48.858;10.128;2024-02-14T13:27:35;7.60;99.90
6377;DHT22;3221;48.858;10.128;2024-02-14T13:30:02;7.70;99.90
6377;DHT22;3221;48.858;10.128;2024-02-14T13:32:30;7.60;99.90
6377;DHT22;3221;48.858;10.128;2024-02-14T13:34:56;7.60;99.90
6377;DHT22;3221;48.858;10.128;2024-02-14T13:37:26;7.70;99.90
6377;DHT22;3221;48.858;10.128;2024-02-14T13:39:53;7.70;99.90
6377;DHT22;3221;48.858;10.128;2024-02-14T13:42:20;7.90;99.90
6377;DHT22;3221;48.858;10.128;2024-02-14T13:44:47;7.80;99.90
6377;DHT22;3221;48.858;10.128;2024-02-14T13:47:17;7.70;99.90
6377;DHT22;3221;48.858;10.128;2024-02-14T13:49:45;7.90;99.90
6377;DHT22;3221;48.858;10.128;2024-02-14T13:52:12;7.70;99.90
6377;DHT22;3221;48.858;10.128;2024-02-14T13:54:39;7.80;99.90
6377;DHT22;3221;48.858;10.128;2024-02-14T13:57:06;7.80;99.90
6377;DHT22;3221;48.858;10.128;2024-02-14T13:59:33;8.00;99.90
6377;DHT22;3221;48.858;10.128;2024-02-14T14:02:00;7.80;99.90
6377;DHT22;3221;48.858;10.128;2024-02-14T14:04:27;7.80;99.90
6377;DHT22;3221;48.858;10.128;2024-02-14T14:06:54;7.80;99.90
6377;DHT22;3221;48.858;10.128;2024-02-14T14:09:22;7.80;99.90
6377;DHT22;3221;48.858;10.128;2024-02-14T14:11:49;7.70;99.90
6377;DHT22;3221;48.858;10.128;2024-02-14T14:14:17;7.80;99.90
6377;DHT22;3221;48.858;10.128;2024-02-14T14:16:45;7.80;99.90
6377;DHT22;3221;48.858;10.128;2024-02-14T14:19:12;8.00;99.90
6377;DHT22;3221;48.858;10.128;2024-02-14T14:21:40;7.90;99.90
6377;DHT22;3221;48.858;10.128;2024-02-14T14:24:07;7.90;99.90
6377;DHT22;3221;48.858;10.128;2024-02-14T14:26:34;8.00;99.90
6377;DHT22;3221;48.858;10.128;2024-02-14T14:29:02;8.00;99.90
6377;DHT22;3221;48.858;10.128;2024-02-14T14:31:28;8.10;99.90
6377;DHT22;3221;48.858;10.128;2024-02-14T14:33:56;8.10;99.90
6377;DHT22;3221;48.858;10.128;2024-02-14T14:36:24;8.10;99.90
6377;DHT22;3221;48.858;10.128;2024-02-14T14:38:52;8.00;99.90
6377;DHT22;3221;48.858;10.128;2024-02-14T14:41:21;8.10;99.90
6377;DHT22;3221;48.858;10.128;2024-02-14T14:43:48;8.00;99.90
6377;DHT22;3221;48.858;10.128;2024-02-14T14:46:16;8.00;99.90
6377;DHT22;3221;48.858;10.128;2024-02-14T14:48:45;8.10;99.90
6377;DHT22;3221;48.858;10.128;2024-02-14T14:51:13;8.10;99.90
6377;DHT22;3221;48.858;10.128;2024-02-14T14:53:40;8.20;99.90
6377;DHT22;3221;48.858;10.128;2024-02-14T14:56:07;8.20;99.90
6377;DHT22;3221;48.858;10.128;2024-02-14T14:58:34;8.20;99.90
6377;DHT22;3221;48.858;10.128;2024-02-14T15:01:02;8.10;99.90
6377;DHT22;3221;48.858;10.128;2024-02-14T15:03:31;8.20;99.90
6377;DHT22;3221;48.858;10.128;2024-02-14T15:05:58;8.10;99.90
6377;DHT22;3221;48.858;10.128;2024-02-14T15:08:25;8.10;99.90
6377;DHT22;3221;48.858;10.128;2024-02-14T15:10:55;8.20;99.90
6377;DHT22;3221;48.858;10.128;2024-02-14T15:13:24;8.10;99.90
6377;DHT22;3221;48.858;10.128;2024-02-14T15:15:51;8.10;99.90
6377;DHT22;3221;48.858;10.128;2024-02-14T15:18:19;8.10;99.90
6377;DHT22;3221;48.858;10.128;2024-02-14T15:20:46;8.30;99.90
6377;DHT22;3221;48.858;10.128;2024-02-14T15:23:13;8.20;99.90
6377;DHT22;3221;48.858;10.128;2024-02-14T15:25:40;8.20;99.90
6377;DHT22;3221;48.858;10.128;2024-02-14T15:28:11;8.20;99.90
6377;DHT22;3221;48.858;10.128;2024-02-14T15:30:48;8.20;99.90
6377;DHT22;3221;48.858;10.128;2024-02-14T15:33:33;8.10;99.90
6377;DHT22;3221;48.858;10.128;2024-02-14T15:36:00;8.30;99.90
6377;DHT22;3221;48.858;10.128;2024-02-14T15:38:28;8.20;99.90
6377;DHT22;3221;48.858;10.128;2024-02-14T15:40:55;8.20;99.90
6377;DHT22;3221;48.858;10.128;2024-02-14T15:43:28;8.30;99.90
6377;DHT22;3221;48.858;10.128;2024-02-14T15:45:55;8.50;99.90
6377;DHT22;3221;48.858;10.128;2024-02-14T15:48:24;8.30;99.90
6377;DHT22;3221;48.858;10.128;2024-02-14T15:50:53;8.20;99.90
6377;DHT22;3221;48.858;10.128;2024-02-14T15:53:21;8.30;99.90
6377;DHT22;3221;48.858;10.128;2024-02-14T15:55:47;8.30;99.90
6377;DHT22;3221;48.858;10.128;2024-02-14T15:58:14;8.50;99.90
6377;DHT22;3221;48.858;10.128;2024-02-14T16:00:42;8.40;99.90
6377;DHT22;3221;48.858;10.128;2024-02-14T16:03:09;8.20;99.90
6377;DHT22;3221;48.858;10.128;2024-02-14T16:05:38;8.40;99.90
6377;DHT22;3221;48.858;10.128;2024-02-14T16:08:06;8.30;99.90
6377;DHT22;3221;48.858;10.128;2024-02-14T16:10:33;8.30;99.90